Time;durP1;ratioP1;P1;durP2;ratioP2;P2;SDS_P1;SDS_P2;PMS_P1;PMS_P2;Temp;Humidity;BMP_temperature;BMP_pressure;BME280_temperature;BME280_humidity;BME280_pressure;Samples;Min_cycle;Max_cycle;Signal;HPM_P1;HPM_P2
2022/04/26 03:37:12;;;;;;;280.83;21.30;;;7.90;99.90;;;;;;6214901;23;20015;-87
2022/04/26 03:39:38;;;;;;;220.90;20.35;;;7.90;99.90;;;;;;6215944;23;20055;-87
2022/04/26 03:42:06;;;;;;;181.40;21.52;;;7.80;99.90;;;;;;6215042;23;19997;-87
2022/04/26 03:44:31;;;;;;;270.00;20.15;;;7.80;99.90;;;;;;6215598;23;20015;-87
2022/04/26 03:46:57;;;;;;;138.27;19.20;;;7.70;99.90;;;;;;6213231;23;20009;-87
2022/04/26 03:49:23;;;;;;;146.90;20.13;;;7.70;99.90;;;;;;6213460;23;20004;-87
2022/04/26 03:51:52;;;;;;;246.13;22.00;;;7.70;99.90;;;;;;6215036;23;20004;-87
2022/04/26 03:54:19;;;;;;;344.67;25.15;;;7.70;99.90;;;;;;6213405;23;20001;-87
2022/04/26 03:56:45;;;;;;;238.68;23.92;;;7.70;99.90;;;;;;6214810;23;20031;-87
2022/04/26 03:59:10;;;;;;;306.65;25.20;;;7.70;99.90;;;;;;6213679;23;20001;-85
2022/04/26 04:01:39;;;;;;;145.27;23.02;;;7.70;99.90;;;;;;6214757;23;20004;-85
2022/04/26 04:04:05;;;;;;;151.45;23.88;;;7.70;99.90;;;;;;6215629;23;20008;-86
2022/04/26 04:06:31;;;;;;;61.03;22.40;;;7.60;99.90;;;;;;6213237;23;20005;-85
2022/04/26 04:08:56;;;;;;;52.60;24.20;;;7.60;99.90;;;;;;6213572;23;20127;-86
2022/04/26 04:11:22;;;;;;;58.00;22.65;;;7.50;99.90;;;;;;6214824;23;20349;-87
2022/04/26 04:13:48;;;;;;;66.85;21.48;;;7.60;99.90;;;;;;6215159;23;20012;-87
2022/04/26 04:16:14;;;;;;;44.85;21.75;;;7.50;99.90;;;;;;6215227;23;20004;-86
2022/04/26 04:21:23;;;;;;;33.30;20.23;;;7.50;99.90;;;;;;6214501;23;20401;-87
2022/04/26 04:23:49;;;;;;;34.42;20.58;;;7.70;99.90;;;;;;6215122;23;20024;-87
2022/04/26 04:26:15;;;;;;;34.25;19.02;;;7.70;99.90;;;;;;6214625;23;19997;-86
2022/04/26 04:28:40;;;;;;;36.33;20.33;;;7.60;99.90;;;;;;6214672;23;20013;-84
2022/04/26 04:31:08;;;;;;;30.08;19.65;;;7.60;99.90;;;;;;6201949;23;20492;-86
2022/04/26 04:33:33;;;;;;;29.45;17.83;;;7.50;99.90;;;;;;6214987;23;20312;-85
2022/04/26 04:35:59;;;;;;;29.65;18.75;;;7.40;99.90;;;;;;6213393;23;20005;-87
2022/04/26 04:38:26;;;;;;;26.88;17.30;;;7.40;99.90;;;;;;6212816;23;20386;-86
2022/04/26 04:40:53;;;;;;;24.88;15.93;;;7.30;99.90;;;;;;6212471;23;20027;-87
2022/04/26 04:43:19;;;;;;;27.13;17.65;;;7.30;99.90;;;;;;6213120;23;20004;-87
2022/04/26 04:45:44;;;;;;;22.00;15.07;;;7.30;99.90;;;;;;6213057;23;20390;-85
2022/04/26 04:48:10;;;;;;;24.25;15.48;;;7.30;99.90;;;;;;6214639;23;20012;-85
2022/04/26 04:50:36;;;;;;;27.83;17.08;;;7.30;99.90;;;;;;6214746;23;20032;-86
2022/04/26 04:53:02;;;;;;;23.13;16.00;;;7.30;99.90;;;;;;6214519;23;20035;-86
2022/04/26 04:55:27;;;;;;;24.58;15.13;;;7.20;99.90;;;;;;6212744;23;20043;-86
2022/04/26 04:57:53;;;;;;;26.35;15.98;;;7.20;99.90;;;;;;6214806;23;20024;-85
2022/04/26 05:00:19;;;;;;;26.23;15.85;;;7.30;99.90;;;;;;6212682;23;20082;-82
2022/04/26 05:02:45;;;;;;;23.55;14.98;;;7.30;99.90;;;;;;6213098;23;20004;-87
2022/04/26 05:05:10;;;;;;;21.45;14.43;;;7.40;99.90;;;;;;6212906;23;20316;-86
2022/04/26 05:07:37;;;;;;;22.98;14.57;;;7.50;99.90;;;;;;6213439;23;20004;-89
2022/04/26 05:10:03;;;;;;;22.92;15.45;;;7.50;99.90;;;;;;6212523;23;20008;-85
2022/04/26 05:12:29;;;;;;;22.65;14.63;;;7.60;99.90;;;;;;6214748;23;20004;-86
2022/04/26 05:14:55;;;;;;;23.73;14.80;;;7.60;99.90;;;;;;6214627;23;20115;-84
2022/04/26 05:17:20;;;;;;;28.73;15.85;;;7.60;99.90;;;;;;6214409;23;20001;-86
2022/04/26 05:19:46;;;;;;;26.05;15.98;;;7.70;99.90;;;;;;6221497;23;19996;-87
2022/04/26 05:22:12;;;;;;;26.00;16.83;;;7.70;99.90;;;;;;6214527;23;20012;-85
2022/04/26 05:24:53;;;;;;;26.02;16.20;;;7.50;99.90;;;;;;6213147;23;20011;-86
2022/04/26 05:27:26;;;;;;;28.88;16.42;;;7.50;99.90;;;;;;6214283;23;20008;-86
2022/04/26 05:29:53;;;;;;;35.08;17.33;;;7.50;99.90;;;;;;6212941;23;20489;-84
2022/04/26 05:32:20;;;;;;;25.25;15.80;;;7.60;99.90;;;;;;6214391;23;20023;-84
2022/04/26 05:34:46;;;;;;;37.03;17.70;;;7.60;99.90;;;;;;6214527;23;20518;-86
2022/04/26 05:37:11;;;;;;;67.07;17.88;;;7.60;99.90;;;;;;6214726;23;19997;-85
2022/04/26 05:39:37;;;;;;;121.63;17.35;;;7.70;99.90;;;;;;6213134;23;20338;-86
2022/04/26 05:42:03;;;;;;;114.07;17.30;;;7.70;99.90;;;;;;6213679;23;20047;-85
2022/04/26 05:44:28;;;;;;;146.52;17.40;;;7.70;99.90;;;;;;6214390;23;20036;-85
2022/04/26 05:46:54;;;;;;;110.72;16.58;;;7.80;99.90;;;;;;6212040;23;20176;-85
2022/04/26 05:49:20;;;;;;;80.25;16.48;;;7.80;99.90;;;;;;6212020;23;20098;-84
2022/04/26 05:51:45;;;;;;;57.90;16.85;;;7.90;99.90;;;;;;6213496;23;20004;-86
2022/04/26 05:54:11;;;;;;;72.45;15.27;;;7.90;99.90;;;;;;6215709;23;20386;-84
2022/04/26 05:56:37;;;;;;;69.60;15.50;;;7.90;99.90;;;;;;6215540;23;20051;-84
2022/04/26 05:59:03;;;;;;;32.88;15.57;;;7.90;99.90;;;;;;6215694;23;20051;-83
2022/04/26 06:01:29;;;;;;;38.55;17.05;;;7.90;99.90;;;;;;6213395;23;20028;-86
2022/04/26 06:03:55;;;;;;;40.50;16.88;;;8.00;99.90;;;;;;6215873;23;20328;-84
2022/04/26 06:06:20;;;;;;;29.65;18.05;;;8.00;99.90;;;;;;6215948;23;20081;-86
2022/04/26 06:08:46;;;;;;;28.98;18.38;;;8.10;99.90;;;;;;6215532;23;20013;-86
2022/04/26 06:11:11;;;;;;;25.63;16.23;;;8.20;99.90;;;;;;6215423;23;20001;-84
2022/04/26 06:13:37;;;;;;;32.67;16.92;;;8.20;99.90;;;;;;6215942;23;20033;-84
2022/04/26 06:16:03;;;;;;;29.50;16.45;;;8.30;99.90;;;;;;6214020;23;20008;-85
2022/04/26 06:18:28;;;;;;;24.63;16.88;;;8.30;99.90;;;;;;6215555;23;20379;-85
2022/04/26 06:20:54;;;;;;;27.00;17.30;;;8.30;99.90;;;;;;6215358;23;20071;-86
2022/04/26 06:23:20;;;;;;;23.27;15.98;;;8.40;99.90;;;;;;6216057;23;20471;-85
2022/04/26 06:25:45;;;;;;;24.25;15.63;;;8.30;99.90;;;;;;6213945;23;20486;-84
2022/04/26 06:28:11;;;;;;;23.98;15.68;;;8.40;99.90;;;;;;6215830;23;20076;-85
2022/04/26 06:30:38;;;;;;;24.63;15.85;;;8.30;99.90;;;;;;6215034;23;20385;-87
2022/04/26 06:33:05;;;;;;;27.85;14.75;;;8.30;99.90;;;;;;6215765;23;20008;-85
2022/04/26 06:35:30;;;;;;;25.33;15.57;;;8.40;99.90;;;;;;6213667;23;20016;-86
2022/04/26 06:37:58;;;;;;;24.85;14.90;;;8.40;99.90;;;;;;6214887;23;20013;-86
2022/04/26 06:40:24;;;;;;;23.40;15.10;;;8.40;99.90;;;;;;6213200;23;20346;-86
2022/04/26 06:42:49;;;;;;;22.15;14.90;;;8.50;99.90;;;;;;6215503;23;20050;-86
2022/04/26 06:45:15;;;;;;;21.63;14.05;;;8.60;99.90;;;;;;6215148;23;20004;-86
2022/04/26 06:47:43;;;;;;;20.67;14.15;;;8.60;99.90;;;;;;6215118;23;20016;-88
2022/04/26 06:50:11;;;;;;;21.27;14.02;;;8.60;99.90;;;;;;6214267;23;20094;-88
2022/04/26 06:52:37;;;;;;;22.25;13.70;;;8.80;99.90;;;;;;6217419;23;20009;-89
2022/04/26 06:55:03;;;;;;;18.02;12.70;;;8.70;99.90;;;;;;6217231;23;20051;-91
2022/04/26 06:57:28;;;;;;;20.60;12.73;;;8.70;99.90;;;;;;6216837;23;20005;-89
2022/04/26 06:59:54;;;;;;;17.98;11.70;;;8.70;99.90;;;;;;6214904;23;19997;-88
2022/04/26 07:02:20;;;;;;;14.45;10.75;;;8.80;99.90;;;;;;6215299;23;20004;-87
2022/04/26 07:04:46;;;;;;;16.73;11.13;;;9.00;99.90;;;;;;6214642;23;20007;-88
2022/04/26 07:07:11;;;;;;;14.68;10.32;;;9.10;99.90;;;;;;6218544;23;20000;-88
2022/04/26 07:09:37;;;;;;;13.43;10.25;;;9.30;99.90;;;;;;6219710;23;20087;-88
2022/04/26 07:12:03;;;;;;;13.93;9.68;;;9.40;99.90;;;;;;6216560;23;20011;-88
2022/04/26 07:14:29;;;;;;;17.88;11.38;;;9.30;99.90;;;;;;6223085;23;20088;-89
2022/04/26 07:16:55;;;;;;;15.68;10.88;;;9.30;99.90;;;;;;6215618;23;20001;-88
2022/04/26 07:19:23;;;;;;;15.63;10.93;;;9.40;99.90;;;;;;6215676;23;20004;-88
2022/04/26 07:21:48;;;;;;;17.42;9.80;;;9.30;99.90;;;;;;6215213;23;19997;-89
2022/04/26 07:24:15;;;;;;;13.00;9.48;;;9.30;99.90;;;;;;6213771;23;20087;-88
2022/04/26 07:26:43;;;;;;;19.23;11.30;;;9.10;99.90;;;;;;6213625;23;20067;-89
2022/04/26 07:29:08;;;;;;;15.60;10.48;;;9.10;99.90;;;;;;6203922;23;20012;-89
2022/04/26 07:31:35;;;;;;;17.00;9.93;;;9.10;99.90;;;;;;6213620;23;20004;-89
2022/04/26 07:36:45;;;;;;;13.63;9.82;;;9.50;99.90;;;;;;6215252;23;20020;-89
2022/04/26 07:39:11;;;;;;;16.25;10.20;;;9.40;99.90;;;;;;6213944;23;20004;-89
2022/04/26 07:41:36;;;;;;;15.13;10.20;;;9.20;99.90;;;;;;6215778;23;20083;-88
2022/04/26 07:44:02;;;;;;;15.35;10.18;;;9.20;99.90;;;;;;6214624;23;20007;-88
2022/04/26 07:46:28;;;;;;;14.23;10.15;;;9.30;99.90;;;;;;6214673;23;20395;-88
2022/04/26 07:48:55;;;;;;;15.35;10.27;;;9.50;99.90;;;;;;6215380;23;20009;-90
2022/04/26 07:51:22;;;;;;;12.93;10.00;;;9.70;99.90;;;;;;6215119;23;20007;-89
2022/04/26 07:53:48;;;;;;;17.23;10.18;;;9.90;99.90;;;;;;6213765;23;20446;-89
2022/04/26 07:56:13;;;;;;;13.57;10.18;;;10.10;99.90;;;;;;6215150;23;20000;-89
2022/04/26 07:58:39;;;;;;;15.88;10.80;;;10.00;99.90;;;;;;6213418;23;20016;-89
2022/04/26 08:01:04;;;;;;;16.92;11.05;;;9.80;99.90;;;;;;6214845;23;20005;-90
2022/04/26 08:03:35;;;;;;;19.60;11.32;;;9.80;99.90;;;;;;6215069;23;20004;-89
2022/04/26 08:06:01;;;;;;;14.63;10.47;;;9.90;99.90;;;;;;6215412;23;19992;-91
2022/04/26 08:08:26;;;;;;;16.00;10.98;;;9.80;99.90;;;;;;6212437;23;20086;-89
2022/04/26 08:10:52;;;;;;;16.13;11.05;;;9.70;99.90;;;;;;6214526;23;20001;-90
2022/04/26 08:13:18;;;;;;;16.33;11.02;;;9.70;99.90;;;;;;6215400;23;20434;-89
2022/04/26 08:15:44;;;;;;;14.98;10.02;;;9.80;99.90;;;;;;6212754;23;20057;-89
2022/04/26 08:18:11;;;;;;;15.27;10.90;;;10.00;99.90;;;;;;6213122;23;20398;-89
2022/04/26 08:20:37;;;;;;;15.10;10.73;;;10.10;99.90;;;;;;6214156;23;20053;-90
2022/04/26 08:23:04;;;;;;;14.80;10.40;;;10.20;99.90;;;;;;6213559;23;20027;-90
2022/04/26 08:28:14;;;;;;;12.93;9.95;;;10.70;99.90;;;;;;6214476;23;20015;-86
2022/04/26 08:30:40;;;;;;;12.75;9.25;;;10.80;99.90;;;;;;6214966;23;20009;-91
2022/04/26 08:33:05;;;;;;;11.13;8.50;;;10.70;99.90;;;;;;6213215;23;20008;-91
2022/04/26 08:35:31;;;;;;;13.27;9.73;;;10.70;99.90;;;;;;6214541;23;20032;-88
2022/04/26 08:37:57;;;;;;;16.35;9.90;;;10.80;99.90;;;;;;6212013;23;20033;-89
2022/04/26 08:40:22;;;;;;;12.55;9.02;;;10.80;99.90;;;;;;6212667;23;20009;-89
2022/04/26 08:42:51;;;;;;;14.15;10.25;;;10.90;99.90;;;;;;6213784;23;20016;-90
2022/04/26 08:45:19;;;;;;;14.40;8.13;;;10.70;99.90;;;;;;6213521;23;20262;-89
2022/04/26 08:53:21;;;;;;;15.80;9.60;;;10.10;99.90;;;;;;6214530;23;20019;-87
2022/04/26 08:55:49;;;;;;;15.57;10.65;;;10.10;99.90;;;;;;6215075;23;20008;-88
2022/04/26 08:58:15;;;;;;;12.18;9.15;;;10.10;99.90;;;;;;6214722;23;20004;-88
2022/04/26 09:01:05;;;;;;;16.60;10.07;;;10.00;99.90;;;;;;6212434;23;20009;-88
2022/04/26 09:03:35;;;;;;;12.43;8.95;;;10.10;99.90;;;;;;6214287;23;20001;-87
2022/04/26 09:06:08;;;;;;;10.85;7.68;;;10.30;99.90;;;;;;6214414;23;20000;-87
2022/04/26 09:08:36;;;;;;;12.88;7.55;;;10.60;99.90;;;;;;6213015;23;20000;-87
2022/04/26 09:11:03;;;;;;;8.70;6.18;;;10.90;99.90;;;;;;6212273;23;20029;-88
2022/04/26 09:13:38;;;;;;;7.95;5.20;;;11.10;99.90;;;;;;6214470;23;20027;-88
2022/04/26 09:16:06;;;;;;;9.13;5.88;;;11.20;97.20;;;;;;6214264;23;20009;-88
2022/04/26 09:18:32;;;;;;;7.15;5.25;;;11.50;96.90;;;;;;6214361;23;20063;-89
2022/04/26 09:20:59;;;;;;;6.75;5.13;;;11.90;98.20;;;;;;6212598;23;20004;-89
2022/04/26 09:23:27;;;;;;;6.40;5.03;;;12.00;96.90;;;;;;6214660;23;20023;-88
2022/04/26 09:26:14;;;;;;;9.68;5.75;;;12.30;94.40;;;;;;6214633;23;20001;-88
2022/04/26 09:28:43;;;;;;;10.38;6.78;;;12.10;94.80;;;;;;6212918;23;20450;-88
2022/04/26 09:31:17;;;;;;;10.95;6.90;;;11.70;99.90;;;;;;6214077;23;20009;-87
2022/04/26 09:33:47;;;;;;;9.80;6.35;;;10.80;99.90;;;;;;6214596;23;20068;-88
2022/04/26 09:36:14;;;;;;;11.82;7.30;;;10.10;99.90;;;;;;6214043;23;20011;-88
2022/04/26 09:38:47;;;;;;;11.80;6.72;;;9.70;99.90;;;;;;6214044;23;20051;-87
2022/04/26 09:41:13;;;;;;;12.10;7.13;;;9.60;99.90;;;;;;6212477;23;20008;-87
2022/04/26 09:43:39;;;;;;;14.98;7.65;;;9.60;99.90;;;;;;6213561;23;20421;-88
2022/04/26 09:46:06;;;;;;;19.95;9.30;;;9.80;99.90;;;;;;6212663;23;20011;-86
2022/04/26 09:48:37;;;;;;;15.07;9.18;;;10.00;99.90;;;;;;6214471;23;20461;-87
2022/04/26 09:51:08;;;;;;;17.13;10.15;;;10.00;99.90;;;;;;6213657;23;20079;-88
2022/04/26 09:53:34;;;;;;;17.25;10.07;;;10.20;99.90;;;;;;6214536;23;20024;-88
2022/04/26 09:56:02;;;;;;;17.05;9.52;;;10.20;99.90;;;;;;6212554;23;20020;-87
2022/04/26 09:58:29;;;;;;;15.20;9.27;;;10.40;99.90;;;;;;6213723;23;20346;-86
2022/04/26 10:01:04;;;;;;;15.68;9.00;;;10.50;99.90;;;;;;6212210;23;20028;-88
2022/04/26 10:03:36;;;;;;;14.07;9.35;;;10.60;99.90;;;;;;6214701;23;20312;-87
2022/04/26 10:06:07;;;;;;;14.90;8.80;;;10.70;99.90;;;;;;6214304;23;20144;-88
2022/04/26 10:08:35;;;;;;;16.05;8.32;;;10.90;99.90;;;;;;6214265;23;20015;-86
2022/04/26 10:11:02;;;;;;;13.27;8.75;;;11.10;99.90;;;;;;6213787;23;19997;-87
2022/04/26 10:13:35;;;;;;;16.13;9.23;;;11.10;99.90;;;;;;6214240;23;20008;-87
2022/04/26 10:16:05;;;;;;;14.68;8.52;;;11.20;99.90;;;;;;6214837;23;20028;-85
2022/04/26 10:18:38;;;;;;;11.95;7.95;;;11.20;99.90;;;;;;6215069;23;20005;-84
2022/04/26 10:21:08;;;;;;;14.52;9.25;;;11.30;99.90;;;;;;6212436;23;20028;-85
2022/04/26 10:23:52;;;;;;;12.43;8.20;;;11.50;99.90;;;;;;6213170;23;20449;-86
2022/04/26 10:26:23;;;;;;;11.88;7.20;;;11.90;99.90;;;;;;6212653;23;20000;-88
2022/04/26 10:29:01;;;;;;;12.38;6.70;;;12.50;99.90;;;;;;6212333;23;20398;-88
2022/04/26 10:31:39;;;;;;;10.15;6.68;;;12.90;99.90;;;;;;6213732;23;20411;-87
2022/04/26 10:34:29;;;;;;;10.63;6.60;;;13.20;99.90;;;;;;6212262;23;20008;-86
2022/04/26 10:37:06;;;;;;;9.27;6.30;;;13.40;99.90;;;;;;6212009;23;20059;-86
2022/04/26 10:39:39;;;;;;;11.93;6.80;;;13.60;99.90;;;;;;6215291;23;20009;-86
2022/04/26 10:42:26;;;;;;;10.23;6.03;;;13.60;99.90;;;;;;6213811;23;20023;-87
2022/04/26 10:44:59;;;;;;;8.48;5.72;;;13.60;99.90;;;;;;6215430;23;20076;-87
2022/04/26 10:47:26;;;;;;;7.72;4.90;;;13.40;99.90;;;;;;6212598;23;20004;-89
2022/04/26 10:49:54;;;;;;;6.65;4.65;;;13.30;96.60;;;;;;6215704;23;20056;-87
2022/04/26 10:52:22;;;;;;;6.65;4.47;;;13.60;96.80;;;;;;6213963;23;20009;-87
2022/04/26 10:55:03;;;;;;;6.85;4.63;;;14.40;95.70;;;;;;6214754;23;20001;-87
2022/04/26 10:57:29;;;;;;;8.57;3.88;;;15.00;90.20;;;;;;6215602;23;20001;-88
2022/04/26 11:00:01;;;;;;;5.85;4.38;;;14.60;76.90;;;;;;6215129;23;20001;-87
2022/04/26 11:02:31;;;;;;;5.18;3.00;;;13.80;85.40;;;;;;6216963;23;20004;-86
2022/04/26 11:05:09;;;;;;;4.90;3.42;;;12.90;90.10;;;;;;6214913;23;20001;-86
2022/04/26 11:07:35;;;;;;;4.53;3.40;;;12.40;92.60;;;;;;6213822;23;20001;-86
2022/04/26 11:10:01;;;;;;;4.57;3.22;;;12.10;92.70;;;;;;6213845;23;20082;-87
2022/04/26 11:12:29;;;;;;;7.10;4.10;;;11.70;94.30;;;;;;6213730;23;20001;-88
2022/04/26 11:14:57;;;;;;;5.68;3.83;;;11.50;99.90;;;;;;6214020;23;20048;-88
2022/04/26 11:17:24;;;;;;;6.38;3.67;;;11.40;99.90;;;;;;6213662;23;20004;-88
2022/04/26 11:19:59;;;;;;;7.35;3.65;;;11.40;99.90;;;;;;6212940;23;20057;-89
2022/04/26 11:22:27;;;;;;;7.25;3.45;;;11.60;99.90;;;;;;6213076;23;20009;-88
2022/04/26 11:28:02;;;;;;;5.63;3.75;;;12.50;99.90;;;;;;6215283;23;20016;-88
2022/04/26 11:30:40;;;;;;;6.05;3.20;;;12.40;99.90;;;;;;6213281;23;20005;-88
2022/04/26 11:33:08;;;;;;;6.63;3.50;;;12.10;99.90;;;;;;6215244;23;20001;-87
2022/04/26 11:35:34;;;;;;;5.22;3.53;;;11.70;99.90;;;;;;6213613;23;20004;-88
2022/04/26 11:38:15;;;;;;;4.07;3.03;;;11.60;99.90;;;;;;6216301;23;20080;-87
2022/04/26 11:41:09;;;;;;;5.93;3.63;;;11.40;99.90;;;;;;6215184;23;20063;-88
2022/04/26 11:43:36;;;;;;;5.85;3.78;;;11.50;99.90;;;;;;6209950;23;20028;-88
2022/04/26 11:46:03;;;;;;;5.18;3.15;;;12.10;99.90;;;;;;6214830;23;20014;-88
2022/04/26 11:48:32;;;;;;;5.78;2.70;;;12.90;99.90;;;;;;6214276;23;20339;-87
2022/04/26 11:50:59;;;;;;;4.00;2.47;;;13.20;97.70;;;;;;6214882;23;20011;-87
2022/04/26 11:53:27;;;;;;;3.45;2.80;;;13.10;95.30;;;;;;6215515;23;20327;-88
2022/04/26 11:55:52;;;;;;;3.00;2.70;;;13.10;92.70;;;;;;6215800;23;20054;-88
2022/04/26 11:58:20;;;;;;;4.50;2.95;;;13.30;87.40;;;;;;6213604;23;20008;-88
2022/04/26 12:01:02;;;;;;;3.35;2.67;;;13.20;88.50;;;;;;6214516;23;20001;-89
2022/04/26 12:03:32;;;;;;;3.22;2.70;;;13.00;90.00;;;;;;6213877;23;20005;-88
2022/04/26 12:06:04;;;;;;;7.47;3.33;;;12.90;86.70;;;;;;6215193;23;20000;-88
2022/04/26 12:08:36;;;;;;;3.47;2.53;;;13.10;81.90;;;;;;6213504;23;20435;-88
2022/04/26 12:11:16;;;;;;;2.53;2.20;;;13.70;84.60;;;;;;6212932;23;20012;-88
2022/04/26 12:13:42;;;;;;;4.38;3.05;;;14.00;78.70;;;;;;6213214;23;20009;-88
2022/04/26 12:16:16;;;;;;;2.65;2.03;;;13.70;79.20;;;;;;6213174;23;20324;-88
2022/04/26 12:18:50;;;;;;;2.63;2.10;;;13.50;78.40;;;;;;6214847;23;20024;-89
2022/04/26 12:21:15;;;;;;;2.97;2.20;;;13.40;77.40;;;;;;6214530;23;20441;-86
2022/04/26 12:23:42;;;;;;;2.35;2.13;;;13.60;76.50;;;;;;6213702;23;20028;-86
2022/04/26 12:26:09;;;;;;;2.03;1.77;;;13.90;73.20;;;;;;6213555;23;20431;-87
2022/04/26 12:28:46;;;;;;;5.47;3.03;;;14.20;70.30;;;;;;6214262;23;20004;-87
2022/04/26 12:31:30;;;;;;;3.70;2.90;;;14.00;71.20;;;;;;6213373;23;20008;-88
2022/04/26 12:34:13;;;;;;;4.47;3.08;;;13.80;74.30;;;;;;6212925;23;20009;-90
2022/04/26 12:37:01;;;;;;;5.03;3.28;;;13.70;75.90;;;;;;6212287;23;20382;-89
2022/04/26 12:39:49;;;;;;;4.68;3.53;;;13.80;74.10;;;;;;6213479;23;20390;-87
2022/04/26 12:42:15;;;;;;;6.70;4.20;;;14.00;73.00;;;;;;6212923;23;20398;-88
2022/04/26 12:44:59;;;;;;;5.40;3.92;;;13.90;74.60;;;;;;6212789;23;20005;-88
2022/04/26 12:53:08;;;;;;;8.48;3.70;;;12.80;93.60;;;;;;6216629;23;20070;-88
2022/04/26 12:55:34;;;;;;;3.63;2.88;;;12.90;93.40;;;;;;6214619;23;20000;-88
2022/04/26 12:58:05;;;;;;;4.05;2.90;;;13.10;94.70;;;;;;6214186;23;20013;-88
2022/04/26 13:00:31;;;;;;;2.72;2.33;;;13.40;94.70;;;;;;6214075;23;20322;-87
2022/04/26 13:03:00;;;;;;;2.83;2.45;;;13.80;91.60;;;;;;6214183;23;20000;-88
2022/04/26 13:05:27;;;;;;;4.22;3.15;;;14.20;88.30;;;;;;6212941;23;20343;-88
2022/04/26 13:07:53;;;;;;;3.88;2.78;;;14.30;87.70;;;;;;6212956;23;20008;-87
2022/04/26 13:10:20;;;;;;;6.72;4.05;;;14.30;84.20;;;;;;6212436;23;20034;-87
2022/04/26 13:12:46;;;;;;;5.72;4.13;;;14.10;84.70;;;;;;6214448;23;20001;-88
2022/04/26 13:15:15;;;;;;;5.82;3.97;;;14.10;82.00;;;;;;6213604;23;20043;-88
2022/04/26 13:17:41;;;;;;;5.90;3.83;;;13.60;82.50;;;;;;6212472;23;20009;-88
2022/04/26 13:20:10;;;;;;;6.13;3.83;;;13.50;84.90;;;;;;6212501;23;20443;-86
2022/04/26 13:22:37;;;;;;;4.72;4.22;;;13.70;81.90;;;;;;6214520;23;20122;-87
2022/04/26 13:25:06;;;;;;;3.40;3.10;;;13.90;82.00;;;;;;6214769;23;20082;-87
2022/04/26 13:27:33;;;;;;;5.00;3.65;;;14.20;81.70;;;;;;6214184;23;20001;-87
2022/04/26 13:29:59;;;;;;;5.22;3.40;;;14.60;78.50;;;;;;6214376;23;20008;-87
2022/04/26 13:32:25;;;;;;;3.88;3.38;;;14.90;75.70;;;;;;6213986;23;20069;-88
2022/04/26 13:34:54;;;;;;;3.20;2.88;;;14.80;76.70;;;;;;6213958;23;20387;-86
2022/04/26 13:37:21;;;;;;;4.28;3.42;;;14.60;78.80;;;;;;6214244;23;20007;-85
2022/04/26 13:39:48;;;;;;;4.55;3.20;;;14.30;77.70;;;;;;6212487;23;20008;-86
2022/04/26 13:42:14;;;;;;;4.32;3.42;;;14.20;79.40;;;;;;6211867;23;20315;-87
2022/04/26 13:44:40;;;;;;;5.55;3.78;;;14.00;81.10;;;;;;6212144;23;20009;-88
2022/04/26 13:47:06;;;;;;;7.82;4.72;;;13.80;89.60;;;;;;6212474;23;20008;-87
2022/04/26 13:49:36;;;;;;;5.47;3.95;;;13.50;91.30;;;;;;6212517;23;20008;-87
2022/04/26 13:52:06;;;;;;;5.35;3.75;;;13.30;95.50;;;;;;6214394;23;20009;-88
2022/04/26 13:54:35;;;;;;;7.35;4.25;;;13.40;98.70;;;;;;6214324;23;20021;-87
2022/04/26 13:57:05;;;;;;;6.65;4.13;;;13.90;98.50;;;;;;6214320;23;20016;-88
2022/04/26 13:59:34;;;;;;;8.25;4.55;;;14.20;99.90;;;;;;6214137;23;20458;-88
2022/04/26 14:02:00;;;;;;;6.30;4.28;;;14.40;97.30;;;;;;6214051;23;20027;-88
2022/04/26 14:04:26;;;;;;;5.35;4.15;;;14.70;99.90;;;;;;6213670;23;20339;-85
2022/04/26 14:06:52;;;;;;;5.28;4.43;;;15.10;93.70;;;;;;6214387;23;20066;-85
2022/04/26 14:09:18;;;;;;;6.30;4.20;;;15.60;86.20;;;;;;6214644;23;20015;-87
2022/04/26 14:11:45;;;;;;;7.55;5.63;;;15.70;91.30;;;;;;6212308;23;20347;-88
2022/04/26 14:22:30;;;;;;;8.48;5.78;;;14.50;91.70;;;;;;6215552;23;20015;-84
2022/04/26 14:24:59;;;;;;;6.22;5.03;;;14.20;93.10;;;;;;6216447;23;20005;-85
2022/04/26 14:27:26;;;;;;;8.65;6.55;;;13.90;90.50;;;;;;6216300;23;20005;-86
2022/04/26 14:29:52;;;;;;;7.85;6.20;;;13.70;91.60;;;;;;6216461;23;20000;-86
2022/04/26 14:32:17;;;;;;;10.90;7.18;;;13.40;94.30;;;;;;6216066;23;20012;-87
2022/04/26 14:34:43;;;;;;;9.50;7.13;;;13.00;94.90;;;;;;6216355;23;20008;-86
2022/04/26 14:37:10;;;;;;;13.15;8.25;;;12.60;99.90;;;;;;6214120;23;20012;-86
2022/04/26 14:39:36;;;;;;;12.48;8.00;;;12.30;99.90;;;;;;6217467;23;20023;-86
2022/04/26 14:42:02;;;;;;;12.60;8.73;;;12.00;99.90;;;;;;6215024;23;20012;-86
2022/04/26 14:44:28;;;;;;;10.80;8.27;;;11.70;99.90;;;;;;6216511;23;20046;-86
2022/04/26 14:46:54;;;;;;;16.10;11.10;;;11.30;99.90;;;;;;6216601;23;20091;-86
2022/04/26 14:49:20;;;;;;;14.95;10.13;;;11.10;99.90;;;;;;6217473;23;20112;-85
2022/04/26 14:51:46;;;;;;;14.68;9.82;;;11.20;99.90;;;;;;6216111;23;20059;-85
2022/04/26 14:54:12;;;;;;;16.05;10.43;;;11.30;99.90;;;;;;6214592;23;20006;-85
2022/04/26 14:56:37;;;;;;;17.23;11.43;;;11.40;99.90;;;;;;6214339;23;20009;-86
2022/04/26 14:59:06;;;;;;;17.00;10.35;;;11.30;99.90;;;;;;6215436;23;20557;-87
2022/04/26 15:01:35;;;;;;;14.07;9.68;;;11.20;99.90;;;;;;6216331;23;20008;-89
2022/04/26 15:04:01;;;;;;;12.82;8.82;;;11.10;99.90;;;;;;6215173;23;20076;-86
2022/04/26 15:06:30;;;;;;;12.73;8.70;;;11.00;99.90;;;;;;6215295;23;20001;-90
2022/04/26 15:17:32;;;;;;;11.88;7.60;;;10.80;99.90;;;;;;6217307;23;20012;-87
2022/04/26 15:19:59;;;;;;;11.45;6.30;;;10.60;99.90;;;;;;6218166;23;20013;-87
2022/04/26 15:22:26;;;;;;;7.13;5.40;;;10.30;99.90;;;;;;6216414;23;20393;-87
2022/04/26 15:24:54;;;;;;;11.43;7.18;;;10.10;99.90;;;;;;6216573;23;20004;-88
2022/04/26 15:27:20;;;;;;;11.50;6.18;;;9.90;99.90;;;;;;6216099;23;20008;-88
2022/04/26 15:29:47;;;;;;;9.05;6.22;;;9.70;99.90;;;;;;6215354;23;20009;-87
2022/04/26 15:32:12;;;;;;;9.10;5.57;;;9.40;99.90;;;;;;6219020;23;20134;-87
2022/04/26 15:34:39;;;;;;;8.80;5.78;;;9.20;99.90;;;;;;6215114;23;20008;-87
2022/04/26 15:37:05;;;;;;;7.75;5.15;;;9.10;99.90;;;;;;6214662;23;20056;-88
2022/04/26 15:39:31;;;;;;;8.15;6.22;;;9.10;99.90;;;;;;6217247;23;20004;-88
2022/04/26 15:41:57;;;;;;;8.65;6.03;;;9.10;99.90;;;;;;6216431;23;20000;-87
2022/04/26 15:44:23;;;;;;;8.77;5.65;;;9.20;99.90;;;;;;6216592;23;20070;-88
2022/04/26 15:46:52;;;;;;;10.88;6.50;;;9.30;99.90;;;;;;6215998;23;20000;-88
2022/04/26 15:49:19;;;;;;;8.65;5.90;;;9.30;99.90;;;;;;6216923;23;20005;-88
2022/04/26 15:51:47;;;;;;;9.95;6.15;;;9.50;99.90;;;;;;6215566;23;20481;-87
2022/04/26 15:54:14;;;;;;;7.85;5.25;;;9.70;99.90;;;;;;6216021;23;20076;-87
2022/04/26 15:56:42;;;;;;;8.85;4.97;;;9.70;99.90;;;;;;6216617;23;20005;-90
2022/04/26 15:59:09;;;;;;;8.95;5.10;;;9.80;99.90;;;;;;6216871;23;20028;-90
2022/04/26 16:01:41;;;;;;;7.55;4.80;;;9.90;99.90;;;;;;6216528;23;19997;-89
2022/04/26 16:04:09;;;;;;;8.00;4.13;;;10.00;99.90;;;;;;6214259;23;20001;-90
2022/04/26 16:06:37;;;;;;;6.00;4.28;;;9.90;99.90;;;;;;6214659;23;20005;-89
2022/04/26 16:23:39;;;;;;;;;;;;;;;;;;;;;
2022/04/26 16:26:36;;;;;;;5.05;3.20;;;9.90;99.90;;;;;;6155635;23;20559;-90
2022/04/26 16:34:02;;;;;;;4.72;3.50;;;9.60;99.90;;;;;;6150025;23;20136;-91
2022/04/26 16:36:21;;;;;;;4.30;3.28;;;9.60;99.90;;;;;;6081810;23;20524;-92
2022/04/26 16:42:11;;;;;;;4.43;2.92;;;9.70;99.90;;;;;;6215347;23;20024;-90
2022/04/26 16:45:03;;;;;;;6.28;3.40;;;9.80;99.90;;;;;;6214736;23;20009;-91
2022/04/26 16:47:31;;;;;;;;;;;9.90;99.90;;;;;;6203150;23;20067;-88
2022/04/26 16:50:04;;;;;;;4.20;2.97;;;10.00;99.90;;;;;;6216088;23;19900;-89
2022/04/26 16:52:29;;;;;;;6.10;3.22;;;10.10;99.90;;;;;;6213930;23;20229;-90
2022/04/26 16:54:55;;;;;;;3.55;2.85;;;10.10;99.90;;;;;;6188494;23;20447;-89
2022/04/26 16:57:21;;;;;;;4.15;3.08;;;10.20;99.90;;;;;;6212825;23;20005;-89
2022/04/26 16:59:47;;;;;;;3.42;2.92;;;10.20;99.90;;;;;;6215180;23;20008;-89
2022/04/26 17:02:14;;;;;;;5.30;3.50;;;10.10;99.90;;;;;;6216936;23;19997;-89
2022/04/26 17:04:41;;;;;;;3.95;2.60;;;10.30;99.90;;;;;;6214889;23;20001;-88
2022/04/26 17:07:06;;;;;;;3.58;2.65;;;10.50;99.90;;;;;;6222843;23;20003;-87
2022/04/26 17:09:34;;;;;;;4.25;2.55;;;11.00;99.90;;;;;;6217207;23;20040;-87
2022/04/26 17:12:00;;;;;;;3.00;2.22;;;11.70;99.90;;;;;;6217614;23;20625;-87
2022/04/26 17:14:26;;;;;;;3.42;2.35;;;12.20;99.90;;;;;;6217833;23;20004;-86
2022/04/26 17:16:52;;;;;;;3.22;2.30;;;12.40;99.90;;;;;;6216638;23;20087;-87
2022/04/26 17:19:19;;;;;;;2.53;2.05;;;12.00;99.90;;;;;;6216753;23;20005;-87
2022/04/26 17:21:48;;;;;;;3.17;2.40;;;11.90;99.90;;;;;;6214875;23;20430;-88
2022/04/26 17:26:58;;;;;;;2.28;2.00;;;11.10;99.90;;;;;;6216993;23;20341;-88
2022/04/26 17:29:24;;;;;;;2.67;2.25;;;11.00;99.90;;;;;;6216272;23;20032;-88